sensor_id;sensor_type;location;lat;lon;timestamp;pressure;altitude;pressure_sealevel;temperature;humidity
50242;BME280;36126;43.222;27.874;2022-11-20T00:00:27;100940.72;;;15.74;100.00
50242;BME280;36126;43.222;27.874;2022-11-20T00:02:52;100943.03;;;16.10;100.00
50242;BME280;36126;43.222;27.874;2022-11-20T00:05:18;100945.94;;;16.25;100.00
50242;BME280;36126;43.222;27.874;2022-11-20T00:07:43;100931.94;;;16.25;100.00
50242;BME280;36126;43.222;27.874;2022-11-20T00:10:08;100927.69;;;16.18;100.00
50242;BME280;36126;43.222;27.874;2022-11-20T00:12:34;100928.84;;;16.22;100.00
50242;BME280;36126;43.222;27.874;2022-11-20T00:14:59;100917.53;;;15.52;100.00
50242;BME280;36126;43.222;27.874;2022-11-20T00:17:24;100911.28;;;15.44;100.00
50242;BME280;36126;43.222;27.874;2022-11-20T00:19:50;100923.19;;;15.84;100.00
50242;BME280;36126;43.222;27.874;2022-11-20T00:22:15;100920.47;;;15.67;100.00
50242;BME280;36126;43.222;27.874;2022-11-20T00:24:40;100926.78;;;15.79;100.00
50242;BME280;36126;43.222;27.874;2022-11-20T00:27:06;100928.31;;;15.92;100.00
50242;BME280;36126;43.222;27.874;2022-11-20T00:29:31;100924.88;;;15.85;100.00
50242;BME280;36126;43.222;27.874;2022-11-20T00:31:56;100913.00;;;15.78;100.00
50242;BME280;36126;43.222;27.874;2022-11-20T00:34:22;100922.94;;;15.86;100.00
50242;BME280;36126;43.222;27.874;2022-11-20T00:36:47;100926.19;;;16.05;100.00
50242;BME280;36126;43.222;27.874;2022-11-20T00:39:12;100913.16;;;15.88;100.00
50242;BME280;36126;43.222;27.874;2022-11-20T00:41:38;100918.56;;;15.73;100.00
50242;BME280;36126;43.222;27.874;2022-11-20T00:44:03;100935.63;;;15.71;100.00
50242;BME280;36126;43.222;27.874;2022-11-20T00:46:29;100939.34;;;15.50;100.00
50242;BME280;36126;43.222;27.874;2022-11-20T00:48:54;100936.78;;;15.70;100.00
50242;BME280;36126;43.222;27.874;2022-11-20T00:51:21;100925.75;;;15.91;100.00
50242;BME280;36126;43.222;27.874;2022-11-20T00:53:46;100927.25;;;15.98;100.00
50242;BME280;36126;43.222;27.874;2022-11-20T00:56:13;100916.88;;;15.99;100.00
50242;BME280;36126;43.222;27.874;2022-11-20T00:58:39;100926.72;;;15.74;100.00
50242;BME280;36126;43.222;27.874;2022-11-20T01:01:07;100926.81;;;15.57;100.00
50242;BME280;36126;43.222;27.874;2022-11-20T01:03:37;100927.69;;;15.58;100.00
50242;BME280;36126;43.222;27.874;2022-11-20T01:06:04;100926.63;;;15.91;100.00
50242;BME280;36126;43.222;27.874;2022-11-20T01:08:32;100922.19;;;16.33;100.00
50242;BME280;36126;43.222;27.874;2022-11-20T01:11:02;100922.81;;;16.45;100.00
50242;BME280;36126;43.222;27.874;2022-11-20T01:13:28;100926.41;;;16.36;100.00
50242;BME280;36126;43.222;27.874;2022-11-20T01:18:31;100926.69;;;16.34;100.00
50242;BME280;36126;43.222;27.874;2022-11-20T01:21:04;100921.03;;;16.29;100.00
50242;BME280;36126;43.222;27.874;2022-11-20T01:23:31;100915.59;;;16.12;100.00
50242;BME280;36126;43.222;27.874;2022-11-20T01:25:56;100919.03;;;16.24;100.00
50242;BME280;36126;43.222;27.874;2022-11-20T01:28:21;100919.22;;;16.12;100.00
50242;BME280;36126;43.222;27.874;2022-11-20T01:30:47;100922.03;;;16.12;100.00
50242;BME280;36126;43.222;27.874;2022-11-20T01:33:12;100922.13;;;16.23;100.00
50242;BME280;36126;43.222;27.874;2022-11-20T01:35:37;100918.94;;;16.14;100.00
50242;BME280;36126;43.222;27.874;2022-11-20T01:38:03;100916.84;;;15.94;100.00
50242;BME280;36126;43.222;27.874;2022-11-20T01:40:28;100904.97;;;15.81;100.00
50242;BME280;36126;43.222;27.874;2022-11-20T01:42:58;100906.53;;;15.45;100.00
50242;BME280;36126;43.222;27.874;2022-11-20T01:48:33;100891.63;;;15.94;100.00
50242;BME280;36126;43.222;27.874;2022-11-20T01:51:00;100894.22;;;16.01;100.00
50242;BME280;36126;43.222;27.874;2022-11-20T01:53:28;100910.00;;;16.17;100.00
50242;BME280;36126;43.222;27.874;2022-11-20T01:55:56;100899.94;;;16.21;100.00
50242;BME280;36126;43.222;27.874;2022-11-20T01:58:27;100904.59;;;16.05;100.00
50242;BME280;36126;43.222;27.874;2022-11-20T02:00:53;100905.38;;;15.95;100.00
50242;BME280;36126;43.222;27.874;2022-11-20T02:03:19;100912.78;;;16.12;100.00
50242;BME280;36126;43.222;27.874;2022-11-20T02:08:25;100902.44;;;16.18;100.00
50242;BME280;36126;43.222;27.874;2022-11-20T02:10:51;100907.56;;;16.26;100.00
50242;BME280;36126;43.222;27.874;2022-11-20T02:13:16;100904.69;;;16.63;100.00
50242;BME280;36126;43.222;27.874;2022-11-20T02:16:00;100897.97;;;16.64;100.00
50242;BME280;36126;43.222;27.874;2022-11-20T02:18:26;100888.09;;;16.57;100.00
50242;BME280;36126;43.222;27.874;2022-11-20T02:20:56;100893.44;;;16.53;100.00
50242;BME280;36126;43.222;27.874;2022-11-20T02:23:33;100904.22;;;16.29;100.00
50242;BME280;36126;43.222;27.874;2022-11-20T02:26:01;100901.72;;;16.32;100.00
50242;BME280;36126;43.222;27.874;2022-11-20T02:28:27;100901.78;;;16.43;100.00
50242;BME280;36126;43.222;27.874;2022-11-20T02:30:52;100899.75;;;16.33;100.00
50242;BME280;36126;43.222;27.874;2022-11-20T02:33:18;100901.81;;;16.48;100.00
50242;BME280;36126;43.222;27.874;2022-11-20T02:35:44;100896.94;;;16.33;100.00
50242;BME280;36126;43.222;27.874;2022-11-20T02:38:10;100901.09;;;16.25;100.00
50242;BME280;36126;43.222;27.874;2022-11-20T02:40:35;100892.44;;;16.27;100.00
50242;BME280;36126;43.222;27.874;2022-11-20T02:43:01;100894.28;;;16.54;100.00
50242;BME280;36126;43.222;27.874;2022-11-20T02:45:26;100895.72;;;16.61;100.00
50242;BME280;36126;43.222;27.874;2022-11-20T02:47:51;100878.94;;;16.72;100.00
50242;BME280;36126;43.222;27.874;2022-11-20T02:50:17;100871.63;;;16.65;100.00
50242;BME280;36126;43.222;27.874;2022-11-20T02:52:42;100866.53;;;16.57;100.00
50242;BME280;36126;43.222;27.874;2022-11-20T02:55:08;100866.41;;;16.90;100.00
50242;BME280;36126;43.222;27.874;2022-11-20T02:57:33;100872.41;;;17.19;100.00
50242;BME280;36126;43.222;27.874;2022-11-20T02:59:59;100876.63;;;17.22;100.00
50242;BME280;36126;43.222;27.874;2022-11-20T03:02:24;100879.97;;;17.13;100.00
50242;BME280;36126;43.222;27.874;2022-11-20T03:04:49;100874.84;;;16.90;100.00
50242;BME280;36126;43.222;27.874;2022-11-20T03:07:15;100875.41;;;16.97;100.00
50242;BME280;36126;43.222;27.874;2022-11-20T03:09:40;100876.72;;;16.74;100.00
50242;BME280;36126;43.222;27.874;2022-11-20T03:12:05;100875.44;;;16.92;100.00
50242;BME280;36126;43.222;27.874;2022-11-20T03:14:31;100878.38;;;16.75;100.00
50242;BME280;36126;43.222;27.874;2022-11-20T03:16:56;100879.88;;;16.88;100.00
50242;BME280;36126;43.222;27.874;2022-11-20T03:19:22;100874.03;;;16.99;100.00
50242;BME280;36126;43.222;27.874;2022-11-20T03:21:47;100876.88;;;17.15;100.00
50242;BME280;36126;43.222;27.874;2022-11-20T03:24:13;100859.50;;;17.13;100.00
50242;BME280;36126;43.222;27.874;2022-11-20T03:26:38;100858.78;;;16.80;100.00
50242;BME280;36126;43.222;27.874;2022-11-20T03:29:04;100859.63;;;16.86;100.00
50242;BME280;36126;43.222;27.874;2022-11-20T03:31:31;100848.41;;;16.86;100.00
50242;BME280;36126;43.222;27.874;2022-11-20T03:33:57;100846.72;;;16.84;100.00
50242;BME280;36126;43.222;27.874;2022-11-20T03:36:23;100843.75;;;17.12;100.00
50242;BME280;36126;43.222;27.874;2022-11-20T03:38:48;100853.63;;;17.45;100.00
50242;BME280;36126;43.222;27.874;2022-11-20T03:41:18;100847.19;;;17.55;100.00
50242;BME280;36126;43.222;27.874;2022-11-20T03:43:47;100849.16;;;17.49;100.00
50242;BME280;36126;43.222;27.874;2022-11-20T03:46:13;100844.38;;;17.45;100.00
50242;BME280;36126;43.222;27.874;2022-11-20T03:48:38;100839.22;;;16.95;100.00
50242;BME280;36126;43.222;27.874;2022-11-20T03:51:13;100844.34;;;17.14;100.00
50242;BME280;36126;43.222;27.874;2022-11-20T03:53:39;100842.31;;;16.99;100.00
50242;BME280;36126;43.222;27.874;2022-11-20T03:56:05;100841.41;;;16.88;100.00
50242;BME280;36126;43.222;27.874;2022-11-20T03:58:32;100846.22;;;16.93;100.00
50242;BME280;36126;43.222;27.874;2022-11-20T04:00:57;100847.41;;;17.07;100.00
50242;BME280;36126;43.222;27.874;2022-11-20T04:03:23;100830.00;;;17.21;100.00
50242;BME280;36126;43.222;27.874;2022-11-20T04:05:48;100829.75;;;17.17;100.00
50242;BME280;36126;43.222;27.874;2022-11-20T04:08:13;100834.22;;;17.23;100.00
50242;BME280;36126;43.222;27.874;2022-11-20T04:10:38;100829.22;;;17.30;100.00
50242;BME280;36126;43.222;27.874;2022-11-20T04:13:04;100816.31;;;17.50;100.00
50242;BME280;36126;43.222;27.874;2022-11-20T04:15:29;100822.72;;;17.30;100.00
50242;BME280;36126;43.222;27.874;2022-11-20T04:17:55;100812.91;;;17.22;100.00
50242;BME280;36126;43.222;27.874;2022-11-20T04:20:20;100821.03;;;17.08;100.00
50242;BME280;36126;43.222;27.874;2022-11-20T04:22:46;100812.63;;;17.24;100.00
50242;BME280;36126;43.222;27.874;2022-11-20T04:25:11;100805.91;;;17.50;100.00
50242;BME280;36126;43.222;27.874;2022-11-20T04:27:36;100795.53;;;17.66;100.00
50242;BME280;36126;43.222;27.874;2022-11-20T04:30:02;100801.13;;;17.61;100.00
50242;BME280;36126;43.222;27.874;2022-11-20T04:32:27;100801.41;;;17.60;100.00
50242;BME280;36126;43.222;27.874;2022-11-20T04:34:53;100805.91;;;17.71;100.00
50242;BME280;36126;43.222;27.874;2022-11-20T04:37:18;100793.25;;;17.84;100.00
50242;BME280;36126;43.222;27.874;2022-11-20T04:39:43;100786.50;;;17.80;100.00
50242;BME280;36126;43.222;27.874;2022-11-20T04:42:09;100785.38;;;17.81;100.00
50242;BME280;36126;43.222;27.874;2022-11-20T04:44:53;100782.28;;;17.88;100.00
50242;BME280;36126;43.222;27.874;2022-11-20T04:47:18;100799.72;;;17.74;100.00
50242;BME280;36126;43.222;27.874;2022-11-20T04:49:43;100794.13;;;17.69;100.00
50242;BME280;36126;43.222;27.874;2022-11-20T04:52:09;100792.16;;;17.70;100.00
50242;BME280;36126;43.222;27.874;2022-11-20T04:54:34;100799.72;;;17.64;100.00
50242;BME280;36126;43.222;27.874;2022-11-20T04:56:59;100803.66;;;17.78;100.00
50242;BME280;36126;43.222;27.874;2022-11-20T04:59:25;100817.16;;;17.71;100.00
50242;BME280;36126;43.222;27.874;2022-11-20T05:01:50;100809.28;;;17.68;100.00
50242;BME280;36126;43.222;27.874;2022-11-20T05:04:16;100806.47;;;17.68;100.00
50242;BME280;36126;43.222;27.874;2022-11-20T05:06:41;100791.03;;;17.71;100.00
50242;BME280;36126;43.222;27.874;2022-11-20T05:09:06;100796.09;;;17.79;100.00
50242;BME280;36126;43.222;27.874;2022-11-20T05:11:32;100792.97;;;17.80;100.00
50242;BME280;36126;43.222;27.874;2022-11-20T05:13:58;100780.34;;;17.57;100.00
50242;BME280;36126;43.222;27.874;2022-11-20T05:16:23;100790.72;;;17.67;100.00
50242;BME280;36126;43.222;27.874;2022-11-20T05:18:50;100801.69;;;17.68;100.00
50242;BME280;36126;43.222;27.874;2022-11-20T05:21:16;100801.97;;;17.88;100.00
50242;BME280;36126;43.222;27.874;2022-11-20T05:23:42;100797.47;;;17.66;100.00
50242;BME280;36126;43.222;27.874;2022-11-20T05:26:08;100812.38;;;17.82;100.00
50242;BME280;36126;43.222;27.874;2022-11-20T05:28:37;100793.28;;;17.94;100.00
50242;BME280;36126;43.222;27.874;2022-11-20T05:33:30;100796.63;;;17.65;100.00
50242;BME280;36126;43.222;27.874;2022-11-20T05:35:59;100803.69;;;17.53;100.00
50242;BME280;36126;43.222;27.874;2022-11-20T05:38:24;100816.03;;;17.72;100.00
50242;BME280;36126;43.222;27.874;2022-11-20T05:40:49;100813.78;;;17.84;100.00
50242;BME280;36126;43.222;27.874;2022-11-20T05:43:15;100820.50;;;17.47;100.00
50242;BME280;36126;43.222;27.874;2022-11-20T05:45:40;100828.38;;;17.35;100.00
50242;BME280;36126;43.222;27.874;2022-11-20T05:48:05;100829.78;;;17.48;100.00
50242;BME280;36126;43.222;27.874;2022-11-20T05:50:31;100830.91;;;17.52;100.00
50242;BME280;36126;43.222;27.874;2022-11-20T05:52:58;100826.13;;;17.42;100.00
50242;BME280;36126;43.222;27.874;2022-11-20T05:55:24;100827.53;;;17.45;100.00
50242;BME280;36126;43.222;27.874;2022-11-20T05:57:49;100825.84;;;17.64;100.00
50242;BME280;36126;43.222;27.874;2022-11-20T06:00:15;100823.03;;;18.00;100.00
50242;BME280;36126;43.222;27.874;2022-11-20T06:02:40;100822.19;;;18.26;100.00
50242;BME280;36126;43.222;27.874;2022-11-20T06:05:06;100819.06;;;18.27;100.00
50242;BME280;36126;43.222;27.874;2022-11-20T06:07:31;100822.13;;;18.46;100.00
50242;BME280;36126;43.222;27.874;2022-11-20T06:09:56;100827.44;;;18.48;100.00
50242;BME280;36126;43.222;27.874;2022-11-20T06:12:22;100822.41;;;18.34;100.00
50242;BME280;36126;43.222;27.874;2022-11-20T06:14:47;100826.34;;;18.39;100.00
50242;BME280;36126;43.222;27.874;2022-11-20T06:17:13;100819.03;;;18.32;100.00
50242;BME280;36126;43.222;27.874;2022-11-20T06:19:38;100818.97;;;18.53;100.00
50242;BME280;36126;43.222;27.874;2022-11-20T06:22:03;100829.38;;;18.58;100.00
50242;BME280;36126;43.222;27.874;2022-11-20T06:24:29;100822.91;;;18.57;100.00
50242;BME280;36126;43.222;27.874;2022-11-20T06:26:54;100823.09;;;18.76;100.00
50242;BME280;36126;43.222;27.874;2022-11-20T06:29:19;100825.75;;;18.47;100.00
50242;BME280;36126;43.222;27.874;2022-11-20T06:31:45;100831.44;;;18.31;100.00
50242;BME280;36126;43.222;27.874;2022-11-20T06:34:10;100823.88;;;18.16;100.00
50242;BME280;36126;43.222;27.874;2022-11-20T06:36:35;100815.97;;;18.18;100.00
50242;BME280;36126;43.222;27.874;2022-11-20T06:39:01;100826.06;;;18.45;100.00
50242;BME280;36126;43.222;27.874;2022-11-20T06:41:27;100827.13;;;18.60;100.00
50242;BME280;36126;43.222;27.874;2022-11-20T06:43:53;100822.44;;;19.05;100.00
50242;BME280;36126;43.222;27.874;2022-11-20T06:46:18;100829.16;;;19.09;100.00
50242;BME280;36126;43.222;27.874;2022-11-20T06:48:44;100828.22;;;19.29;100.00
50242;BME280;36126;43.222;27.874;2022-11-20T06:51:13;100825.41;;;19.29;100.00
50242;BME280;36126;43.222;27.874;2022-11-20T06:53:38;100818.53;;;18.96;100.00
50242;BME280;36126;43.222;27.874;2022-11-20T06:56:04;100821.78;;;19.18;100.00
50242;BME280;36126;43.222;27.874;2022-11-20T06:58:31;100830.47;;;19.27;100.00
50242;BME280;36126;43.222;27.874;2022-11-20T07:01:00;100828.72;;;19.71;100.00
50242;BME280;36126;43.222;27.874;2022-11-20T07:03:25;100824.19;;;19.75;100.00
50242;BME280;36126;43.222;27.874;2022-11-20T07:05:51;100827.03;;;19.70;100.00
50242;BME280;36126;43.222;27.874;2022-11-20T07:08:19;100829.22;;;19.78;100.00
50242;BME280;36126;43.222;27.874;2022-11-20T07:10:44;100815.91;;;19.89;100.00
50242;BME280;36126;43.222;27.874;2022-11-20T07:13:09;100819.16;;;20.07;100.00
50242;BME280;36126;43.222;27.874;2022-11-20T07:15:35;100816.81;;;20.38;100.00
50242;BME280;36126;43.222;27.874;2022-11-20T07:18:00;100823.88;;;20.35;100.00
50242;BME280;36126;43.222;27.874;2022-11-20T07:20:25;100824.69;;;20.41;100.00
50242;BME280;36126;43.222;27.874;2022-11-20T07:22:54;100819.16;;;20.07;100.00
50242;BME280;36126;43.222;27.874;2022-11-20T07:25:20;100813.56;;;20.01;100.00
50242;BME280;36126;43.222;27.874;2022-11-20T07:27:46;100824.28;;;20.29;100.00
50242;BME280;36126;43.222;27.874;2022-11-20T07:30:11;100835.00;;;20.27;100.00
50242;BME280;36126;43.222;27.874;2022-11-20T07:32:37;100823.66;;;20.32;100.00
50242;BME280;36126;43.222;27.874;2022-11-20T07:35:02;100828.03;;;20.43;100.00
50242;BME280;36126;43.222;27.874;2022-11-20T07:37:28;100823.66;;;20.32;100.00
50242;BME280;36126;43.222;27.874;2022-11-20T07:39:53;100819.22;;;20.50;100.00
50242;BME280;36126;43.222;27.874;2022-11-20T07:42:18;100812.22;;;20.90;100.00
50242;BME280;36126;43.222;27.874;2022-11-20T07:44:44;100810.63;;;20.84;100.00
50242;BME280;36126;43.222;27.874;2022-11-20T07:47:09;100805.16;;;20.93;100.00
50242;BME280;36126;43.222;27.874;2022-11-20T07:49:34;100812.50;;;21.13;100.00
50242;BME280;36126;43.222;27.874;2022-11-20T07:52:00;100803.56;;;21.06;100.00
50242;BME280;36126;43.222;27.874;2022-11-20T07:54:25;100813.97;;;20.86;100.00
50242;BME280;36126;43.222;27.874;2022-11-20T07:56:50;100800.88;;;21.15;100.00
50242;BME280;36126;43.222;27.874;2022-11-20T07:59:16;100810.47;;;20.95;100.00
50242;BME280;36126;43.222;27.874;2022-11-20T08:01:42;100814.00;;;21.05;100.00
50242;BME280;36126;43.222;27.874;2022-11-20T08:04:08;100814.72;;;21.35;100.00
50242;BME280;36126;43.222;27.874;2022-11-20T08:06:33;100812.56;;;21.27;100.00
50242;BME280;36126;43.222;27.874;2022-11-20T08:08:59;100816.72;;;21.16;100.00
50242;BME280;36126;43.222;27.874;2022-11-20T08:14:08;100816.94;;;21.57;100.00
50242;BME280;36126;43.222;27.874;2022-11-20T08:16:37;100821.81;;;21.52;100.00
50242;BME280;36126;43.222;27.874;2022-11-20T08:19:02;100813.47;;;21.41;100.00
50242;BME280;36126;43.222;27.874;2022-11-20T08:21:27;100826.72;;;21.79;100.00
50242;BME280;36126;43.222;27.874;2022-11-20T08:23:53;100814.53;;;21.98;100.00
50242;BME280;36126;43.222;27.874;2022-11-20T08:26:18;100812.47;;;22.03;100.00
50242;BME280;36126;43.222;27.874;2022-11-20T08:28:44;100806.91;;;21.65;100.00
50242;BME280;36126;43.222;27.874;2022-11-20T08:31:10;100810.63;;;21.80;100.00
50242;BME280;36126;43.222;27.874;2022-11-20T08:33:35;100815.88;;;21.86;100.00
50242;BME280;36126;43.222;27.874;2022-11-20T08:36:04;100817.59;;;21.68;100.00
50242;BME280;36126;43.222;27.874;2022-11-20T08:38:30;100811.91;;;21.54;100.00
50242;BME280;36126;43.222;27.874;2022-11-20T08:40:56;100810.06;;;21.78;100.00
50242;BME280;36126;43.222;27.874;2022-11-20T08:43:40;100801.88;;;22.09;100.00
50242;BME280;36126;43.222;27.874;2022-11-20T08:46:05;100788.84;;;21.94;100.00
50242;BME280;36126;43.222;27.874;2022-11-20T08:48:31;100781.28;;;21.76;100.00
50242;BME280;36126;43.222;27.874;2022-11-20T08:50:57;100802.81;;;21.90;100.00
50242;BME280;36126;43.222;27.874;2022-11-20T08:53:22;100792.97;;;22.02;100.00
50242;BME280;36126;43.222;27.874;2022-11-20T08:55:48;100795.94;;;22.24;100.00
50242;BME280;36126;43.222;27.874;2022-11-20T08:58:13;100795.97;;;22.38;100.00
50242;BME280;36126;43.222;27.874;2022-11-20T09:00:38;100800.16;;;22.41;100.00
50242;BME280;36126;43.222;27.874;2022-11-20T09:03:04;100790.81;;;22.27;100.00
50242;BME280;36126;43.222;27.874;2022-11-20T09:05:29;100788.97;;;22.36;100.00
50242;BME280;36126;43.222;27.874;2022-11-20T09:07:58;100788.53;;;22.42;100.00
50242;BME280;36126;43.222;27.874;2022-11-20T09:10:23;100789.56;;;22.61;100.00
50242;BME280;36126;43.222;27.874;2022-11-20T09:12:49;100784.84;;;22.56;100.00
50242;BME280;36126;43.222;27.874;2022-11-20T09:15:15;100780.34;;;22.41;100.00
50242;BME280;36126;43.222;27.874;2022-11-20T09:17:41;100782.41;;;22.07;100.00
50242;BME280;36126;43.222;27.874;2022-11-20T09:20:07;100780.03;;;22.42;100.00
50242;BME280;36126;43.222;27.874;2022-11-20T09:22:32;100776.47;;;22.37;100.00
50242;BME280;36126;43.222;27.874;2022-11-20T09:24:57;100781.53;;;22.54;100.00
50242;BME280;36126;43.222;27.874;2022-11-20T09:27:23;100786.94;;;22.22;100.00
50242;BME280;36126;43.222;27.874;2022-11-20T09:29:48;100777.94;;;22.34;100.00
50242;BME280;36126;43.222;27.874;2022-11-20T09:32:14;100778.00;;;22.01;100.00
50242;BME280;36126;43.222;27.874;2022-11-20T09:34:39;100776.94;;;21.97;100.00
50242;BME280;36126;43.222;27.874;2022-11-20T09:37:04;100771.84;;;22.41;100.00
50242;BME280;36126;43.222;27.874;2022-11-20T09:39:30;100772.38;;;22.71;100.00
50242;BME280;36126;43.222;27.874;2022-11-20T09:42:00;100771.06;;;22.91;100.00
50242;BME280;36126;43.222;27.874;2022-11-20T09:46:57;100761.97;;;22.80;100.00
50242;BME280;36126;43.222;27.874;2022-11-20T09:49:35;100760.91;;;22.90;100.00
50242;BME280;36126;43.222;27.874;2022-11-20T09:52:14;100755.50;;;22.52;100.00
50242;BME280;36126;43.222;27.874;2022-11-20T09:54:43;100752.16;;;22.50;100.00
50242;BME280;36126;43.222;27.874;2022-11-20T09:57:10;100752.25;;;22.45;100.00
50242;BME280;36126;43.222;27.874;2022-11-20T09:59:41;100738.28;;;22.76;100.00
50242;BME280;36126;43.222;27.874;2022-11-20T10:07:33;100738.09;;;22.95;100.00
50242;BME280;36126;43.222;27.874;2022-11-20T10:10:01;100739.72;;;22.87;100.00
50242;BME280;36126;43.222;27.874;2022-11-20T10:15:22;100722.28;;;22.94;100.00
50242;BME280;36126;43.222;27.874;2022-11-20T10:23:09;100706.69;;;23.19;100.00
50242;BME280;36126;43.222;27.874;2022-11-20T10:28:22;100702.84;;;22.65;100.00
50242;BME280;36126;43.222;27.874;2022-11-20T10:31:08;100700.84;;;23.02;100.00
50242;BME280;36126;43.222;27.874;2022-11-20T10:33:42;100697.84;;;22.98;100.00
50242;BME280;36126;43.222;27.874;2022-11-20T10:38:45;100691.22;;;22.24;100.00
50242;BME280;36126;43.222;27.874;2022-11-20T10:41:16;100692.91;;;22.53;100.00
50242;BME280;36126;43.222;27.874;2022-11-20T10:43:56;100692.59;;;22.41;100.00
50242;BME280;36126;43.222;27.874;2022-11-20T10:46:24;100687.28;;;22.39;100.00
50242;BME280;36126;43.222;27.874;2022-11-20T10:48:50;100689.28;;;22.39;100.00
50242;BME280;36126;43.222;27.874;2022-11-20T10:56:35;100681.97;;;22.74;100.00
50242;BME280;36126;43.222;27.874;2022-11-20T10:59:12;100677.41;;;22.87;100.00
50242;BME280;36126;43.222;27.874;2022-11-20T11:01:43;100687.06;;;23.09;100.00
50242;BME280;36126;43.222;27.874;2022-11-20T11:07:22;100696.00;;;23.16;100.00
50242;BME280;36126;43.222;27.874;2022-11-20T11:09:50;100683.22;;;23.05;100.00
50242;BME280;36126;43.222;27.874;2022-11-20T11:12:16;100679.72;;;23.22;100.00
50242;BME280;36126;43.222;27.874;2022-11-20T11:14:42;100671.81;;;22.96;100.00
50242;BME280;36126;43.222;27.874;2022-11-20T11:17:17;100676.09;;;22.93;100.00
50242;BME280;36126;43.222;27.874;2022-11-20T11:19:43;100679.91;;;22.89;100.00
50242;BME280;36126;43.222;27.874;2022-11-20T11:22:10;100688.13;;;23.13;100.00
50242;BME280;36126;43.222;27.874;2022-11-20T11:24:43;100693.66;;;23.18;100.00
50242;BME280;36126;43.222;27.874;2022-11-20T11:27:16;100687.84;;;23.01;100.00
50242;BME280;36126;43.222;27.874;2022-11-20T11:29:42;100693.31;;;22.97;100.00
50242;BME280;36126;43.222;27.874;2022-11-20T11:32:12;100696.53;;;22.82;100.00
50242;BME280;36126;43.222;27.874;2022-11-20T11:34:38;100703.16;;;23.14;100.00
50242;BME280;36126;43.222;27.874;2022-11-20T11:37:03;100694.28;;;22.92;100.00
50242;BME280;36126;43.222;27.874;2022-11-20T11:39:30;100699.69;;;23.03;100.00
50242;BME280;36126;43.222;27.874;2022-11-20T11:41:56;100704.31;;;22.76;100.00
50242;BME280;36126;43.222;27.874;2022-11-20T11:47:11;100712.31;;;22.46;100.00
50242;BME280;36126;43.222;27.874;2022-11-20T11:49:40;100713.34;;;22.64;100.00
50242;BME280;36126;43.222;27.874;2022-11-20T11:52:18;100709.41;;;22.37;100.00
50242;BME280;36126;43.222;27.874;2022-11-20T11:54:53;100714.59;;;22.44;100.00
50242;BME280;36126;43.222;27.874;2022-11-20T11:57:24;100715.56;;;22.39;100.00
50242;BME280;36126;43.222;27.874;2022-11-20T11:59:54;100718.94;;;22.41;100.00
50242;BME280;36126;43.222;27.874;2022-11-20T12:02:29;100716.09;;;22.41;100.00
50242;BME280;36126;43.222;27.874;2022-11-20T12:05:00;100722.69;;;22.37;100.00
50242;BME280;36126;43.222;27.874;2022-11-20T12:07:47;100725.59;;;22.04;100.00
50242;BME280;36126;43.222;27.874;2022-11-20T12:13:02;100718.16;;;22.64;100.00
50242;BME280;36126;43.222;27.874;2022-11-20T12:15:30;100712.25;;;22.74;100.00
50242;BME280;36126;43.222;27.874;2022-11-20T12:17:55;100712.63;;;22.45;100.00
50242;BME280;36126;43.222;27.874;2022-11-20T12:20:22;100699.31;;;22.45;100.00
50242;BME280;36126;43.222;27.874;2022-11-20T12:22:55;100710.44;;;22.55;100.00
50242;BME280;36126;43.222;27.874;2022-11-20T12:25:30;100705.38;;;22.52;100.00
50242;BME280;36126;43.222;27.874;2022-11-20T12:30:32;100695.56;;;22.50;100.00
50242;BME280;36126;43.222;27.874;2022-11-20T12:48:24;100700.69;;;22.20;100.00
50242;BME280;36126;43.222;27.874;2022-11-20T12:56:05;100701.19;;;22.08;100.00
50242;BME280;36126;43.222;27.874;2022-11-20T12:58:50;100709.06;;;21.97;100.00
50242;BME280;36126;43.222;27.874;2022-11-20T13:04:15;100704.00;;;21.80;100.00
50242;BME280;36126;43.222;27.874;2022-11-20T13:06:44;100710.19;;;21.82;100.00
50242;BME280;36126;43.222;27.874;2022-11-20T13:09:11;100695.34;;;21.90;100.00
50242;BME280;36126;43.222;27.874;2022-11-20T13:14:11;100695.34;;;22.04;100.00
50242;BME280;36126;43.222;27.874;2022-11-20T13:19:14;100692.06;;;21.83;100.00
50242;BME280;36126;43.222;27.874;2022-11-20T13:21:48;100691.50;;;21.53;100.00
50242;BME280;36126;43.222;27.874;2022-11-20T13:27:01;100693.25;;;21.49;100.00
50242;BME280;36126;43.222;27.874;2022-11-20T13:29:27;100675.22;;;21.12;100.00
50242;BME280;36126;43.222;27.874;2022-11-20T13:32:01;100685.84;;;21.01;100.00
50242;BME280;36126;43.222;27.874;2022-11-20T13:34:27;100687.94;;;20.77;100.00
50242;BME280;36126;43.222;27.874;2022-11-20T13:36:53;100698.31;;;20.81;100.00
50242;BME280;36126;43.222;27.874;2022-11-20T13:44:47;100704.44;;;20.64;100.00
50242;BME280;36126;43.222;27.874;2022-11-20T13:47:20;100710.00;;;20.75;100.00
50242;BME280;36126;43.222;27.874;2022-11-20T13:49:46;100718.41;;;20.55;100.00
50242;BME280;36126;43.222;27.874;2022-11-20T14:00:18;100706.84;;;20.76;100.00
50242;BME280;36126;43.222;27.874;2022-11-20T14:02:46;100694.00;;;20.65;100.00
50242;BME280;36126;43.222;27.874;2022-11-20T14:05:20;100702.28;;;20.56;100.00